Time;durP1;ratioP1;P1;durP2;ratioP2;P2;SDS_P1;SDS_P2;PMS_P1;PMS_P2;Temp;Humidity;BMP_temperature;BMP_pressure;BME280_temperature;BME280_humidity;BME280_pressure;Samples;Min_cycle;Max_cycle;Signal;HPM_P1;HPM_P2
2022/08/24 00:01:27;;;;;;;10.85;3.22;;;;;;;18.41;100.00;94768.28;1673839;85;21507;-50
2022/08/24 00:03:56;;;;;;;12.73;3.65;;;;;;;18.37;100.00;94766.37;1650840;85;21270;-50
2022/08/24 00:06:24;;;;;;;6.87;3.33;;;;;;;18.34;100.00;94757.62;1651958;85;21050;-50
2022/08/24 00:08:53;;;;;;;7.83;3.27;;;;;;;18.31;100.00;94736.30;1674319;83;21016;-51
2022/08/24 00:11:21;;;;;;;9.80;3.20;;;;;;;18.29;100.00;94717.94;1673548;84;21023;-51
2022/08/24 00:13:49;;;;;;;13.95;4.37;;;;;;;18.24;100.00;94697.75;1659302;84;21451;-50
2022/08/24 00:16:18;;;;;;;6.22;2.95;;;;;;;18.21;100.00;94693.19;1677549;83;21269;-50
2022/08/24 00:18:46;;;;;;;8.48;4.05;;;;;;;18.20;100.00;94693.66;1663276;83;20991;-51
2022/08/24 00:21:15;;;;;;;9.28;3.62;;;;;;;18.15;100.00;94686.70;1671566;85;21074;-51
2022/08/24 00:23:43;;;;;;;7.92;3.75;;;;;;;18.17;100.00;94680.00;1675344;85;21105;-51
2022/08/24 00:26:11;;;;;;;7.80;4.08;;;;;;;18.18;100.00;94671.77;1683731;85;21045;-50
2022/08/24 00:28:39;;;;;;;12.40;3.10;;;;;;;18.15;100.00;94657.45;1672806;84;21150;-50
2022/08/24 00:31:07;;;;;;;11.53;3.12;;;;;;;18.13;100.00;94652.98;1665960;83;21033;-51
2022/08/24 00:33:34;;;;;;;5.45;3.20;;;;;;;18.12;100.00;94652.24;1674040;85;21092;-51
2022/08/24 00:36:04;;;;;;;7.17;3.60;;;;;;;18.14;100.00;94648.33;1676482;85;21161;-51
2022/08/24 00:38:34;;;;;;;8.55;3.12;;;;;;;18.19;100.00;94653.16;1662587;85;21578;-51
2022/08/24 00:41:02;;;;;;;7.65;3.10;;;;;;;18.24;100.00;94646.88;1672594;85;21207;-50
2022/08/24 00:43:31;;;;;;;11.78;3.80;;;;;;;18.28;100.00;94649.56;1664078;84;20957;-52
2022/08/24 00:46:09;;;;;;;9.45;3.25;;;;;;;18.29;100.00;94639.95;1670484;85;21071;-50
2022/08/24 00:48:40;;;;;;;15.95;3.60;;;;;;;18.30;100.00;94635.89;1675240;83;21118;-51
2022/08/24 00:51:21;;;;;;;8.90;3.30;;;;;;;18.30;100.00;94615.00;1660829;85;20971;-51
2022/08/24 00:53:57;;;;;;;8.10;3.52;;;;;;;18.30;100.00;94616.40;1653614;85;22683;-50
2022/08/24 00:56:31;;;;;;;8.30;4.03;;;;;;;18.32;100.00;94606.91;1673411;83;21145;-51
2022/08/24 00:59:06;;;;;;;8.33;4.62;;;;;;;18.33;100.00;94604.90;1621569;86;21127;-53
2022/08/24 01:01:34;;;;;;;7.60;3.25;;;;;;;18.31;100.00;94598.42;1660154;83;21032;-51
2022/08/24 01:04:04;;;;;;;9.90;3.92;;;;;;;18.31;100.00;94607.42;1669065;84;20962;-51
2022/08/24 01:06:32;;;;;;;12.43;3.33;;;;;;;18.29;100.00;94610.70;1662192;84;21315;-52
2022/08/24 01:09:02;;;;;;;9.48;3.92;;;;;;;18.27;100.00;94602.08;1681460;83;20955;-52
2022/08/24 01:11:29;;;;;;;9.23;3.83;;;;;;;18.28;100.00;94600.82;1663272;83;20983;-52
2022/08/24 01:13:59;;;;;;;11.35;4.30;;;;;;;18.26;100.00;94600.53;1679366;83;20990;-51
2022/08/24 01:19:30;;;;;;;9.28;3.40;;;;;;;18.26;100.00;94606.10;1655232;85;21255;-51
2022/08/24 01:22:39;;;;;;;9.35;3.45;;;;;;;18.25;100.00;94612.94;1671873;85;20995;-51
2022/08/24 01:25:07;;;;;;;15.93;3.92;;;;;;;18.24;100.00;94610.02;1670467;85;21015;-49
2022/08/24 01:27:36;;;;;;;11.08;3.62;;;;;;;18.23;100.00;94601.53;1651297;85;21157;-50
2022/08/24 01:30:08;;;;;;;6.85;4.10;;;;;;;18.19;100.00;94608.59;1670865;85;20965;-50
2022/08/24 01:32:36;;;;;;;10.05;3.92;;;;;;;18.21;100.00;94609.63;1664758;85;21265;-50
2022/08/24 01:35:04;;;;;;;10.78;3.72;;;;;;;18.22;100.00;94604.81;1655991;85;21117;-50
2022/08/24 01:37:32;;;;;;;6.15;3.77;;;;;;;18.19;100.00;94607.98;1668938;84;21554;-51
2022/08/24 01:40:02;;;;;;;7.00;3.90;;;;;;;18.19;100.00;94610.77;1672784;84;21043;-51
2022/08/24 01:42:33;;;;;;;11.03;3.67;;;;;;;18.22;100.00;94602.02;1647062;85;20978;-50
2022/08/24 01:45:00;;;;;;;7.35;3.65;;;;;;;18.20;100.00;94602.54;1670865;85;21962;-50
2022/08/24 01:47:28;;;;;;;6.37;3.08;;;;;;;18.21;100.00;94608.23;1644828;85;21018;-50
2022/08/24 01:49:58;;;;;;;8.10;3.35;;;;;;;18.21;100.00;94620.77;1653443;85;21815;-50
2022/08/24 01:52:27;;;;;;;6.60;3.45;;;;;;;18.18;100.00;94616.20;1637639;84;21105;-50
2022/08/24 01:54:54;;;;;;;9.30;3.92;;;;;;;18.19;100.00;94614.95;1654900;83;21116;-51
2022/08/24 01:57:24;;;;;;;5.05;3.27;;;;;;;18.13;100.00;94604.39;1671462;85;21564;-50
2022/08/24 01:59:54;;;;;;;10.20;3.17;;;;;;;18.12;100.00;94609.70;1664909;83;21049;-50
2022/08/24 02:02:29;;;;;;;6.45;3.00;;;;;;;18.11;100.00;94619.31;1673434;85;21047;-51
2022/08/24 02:04:58;;;;;;;9.10;3.70;;;;;;;18.07;100.00;94620.19;1682308;83;21106;-50
2022/08/24 02:07:28;;;;;;;11.08;4.22;;;;;;;18.08;100.00;94627.27;1675774;85;21033;-51
2022/08/24 02:09:56;;;;;;;7.50;3.85;;;;;;;18.06;100.00;94618.66;1675928;84;21262;-51
2022/08/24 02:12:25;;;;;;;11.50;4.22;;;;;;;18.03;100.00;94615.48;1648024;83;21047;-50
2022/08/24 02:14:53;;;;;;;15.55;3.87;;;;;;;18.02;100.00;94616.10;1647133;83;20994;-51
2022/08/24 02:17:22;;;;;;;11.03;4.55;;;;;;;18.03;100.00;94619.66;1660020;85;20987;-50
2022/08/24 02:19:51;;;;;;;8.00;4.45;;;;;;;18.02;100.00;94626.49;1662084;85;21122;-50
2022/08/24 02:22:19;;;;;;;10.35;4.55;;;;;;;17.93;100.00;94639.20;1673744;84;21142;-50
2022/08/24 02:24:48;;;;;;;6.80;3.70;;;;;;;17.85;100.00;94639.55;1656674;85;21590;-50
2022/08/24 02:27:16;;;;;;;8.58;3.75;;;;;;;17.85;100.00;94642.33;1665600;84;21133;-51
2022/08/24 02:29:45;;;;;;;6.08;3.65;;;;;;;17.87;100.00;94650.94;1655977;83;21074;-51
2022/08/24 02:32:13;;;;;;;9.30;3.45;;;;;;;17.90;100.00;94640.20;1679423;83;21133;-50
2022/08/24 02:34:42;;;;;;;8.95;4.28;;;;;;;17.86;100.00;94638.28;1671602;85;21282;-50
2022/08/24 02:37:10;;;;;;;8.75;3.67;;;;;;;17.77;100.00;94633.67;1653226;85;21007;-50
2022/08/24 02:39:39;;;;;;;6.55;3.33;;;;;;;17.76;100.00;94635.55;1672240;85;20999;-50
2022/08/24 02:42:09;;;;;;;7.78;4.42;;;;;;;17.73;100.00;94636.55;1628563;88;21044;-50
2022/08/24 02:44:38;;;;;;;12.80;4.30;;;;;;;17.71;100.00;94637.06;1625987;88;21122;-51
2022/08/24 02:47:06;;;;;;;10.72;4.80;;;;;;;17.69;100.00;94631.23;1679510;85;21555;-50
2022/08/24 02:49:34;;;;;;;8.55;4.95;;;;;;;17.69;100.00;94627.67;1655037;85;21062;-50
2022/08/24 02:52:04;;;;;;;8.88;4.80;;;;;;;17.68;100.00;94627.54;1679524;85;20976;-50
2022/08/24 02:54:33;;;;;;;7.75;4.42;;;;;;;17.70;100.00;94638.94;1655022;85;20975;-50
2022/08/24 02:57:01;;;;;;;8.70;4.83;;;;;;;17.72;100.00;94644.77;1665324;85;20963;-50
2022/08/24 02:59:29;;;;;;;9.05;4.78;;;;;;;17.79;100.00;94638.75;1653056;85;21138;-50
2022/08/24 03:01:57;;;;;;;10.30;4.53;;;;;;;17.83;100.00;94647.63;1621641;86;21039;-50
2022/08/24 03:04:24;;;;;;;9.53;4.28;;;;;;;17.85;100.00;94634.72;1662124;85;21069;-51
2022/08/24 03:06:52;;;;;;;15.00;5.95;;;;;;;17.89;100.00;94623.38;1670760;85;21012;-51
2022/08/24 03:09:21;;;;;;;11.28;4.47;;;;;;;17.88;100.00;94614.27;1676345;83;20971;-51
2022/08/24 03:11:49;;;;;;;11.12;5.00;;;;;;;17.89;100.00;94603.27;1644555;84;21157;-50
2022/08/24 03:14:18;;;;;;;7.90;4.95;;;;;;;17.87;100.00;94602.23;1644789;85;20979;-51
2022/08/24 03:16:46;;;;;;;12.40;5.95;;;;;;;17.83;100.00;94603.10;1660747;85;21573;-51
2022/08/24 03:19:14;;;;;;;15.60;6.03;;;;;;;17.77;100.00;94586.36;1664447;85;20971;-51
2022/08/24 03:21:43;;;;;;;8.45;4.22;;;;;;;17.72;100.00;94581.53;1645450;84;21189;-49
2022/08/24 03:24:11;;;;;;;7.58;3.83;;;;;;;17.67;100.00;94589.84;1674741;85;21934;-50
2022/08/24 03:26:40;;;;;;;12.93;4.80;;;;;;;17.62;100.00;94592.72;1677488;84;21617;-50
2022/08/24 03:29:08;;;;;;;9.28;3.77;;;;;;;17.57;100.00;94594.06;1662298;85;21083;-51
2022/08/24 03:31:37;;;;;;;12.10;4.50;;;;;;;17.52;100.00;94609.48;1663563;83;21106;-52
2022/08/24 03:34:04;;;;;;;8.95;4.62;;;;;;;17.49;100.00;94618.05;1675860;83;21054;-51
2022/08/24 03:36:32;;;;;;;14.50;5.28;;;;;;;17.53;100.00;94638.82;1677392;83;21225;-51
2022/08/24 03:39:00;;;;;;;14.98;4.90;;;;;;;17.57;100.00;94645.53;1633254;85;21031;-50
2022/08/24 03:41:28;;;;;;;6.83;4.20;;;;;;;17.59;100.00;94638.23;1653346;86;21507;-51
2022/08/24 03:43:56;;;;;;;10.03;4.40;;;;;;;17.59;100.00;94634.67;1658576;85;21225;-50
2022/08/24 03:46:27;;;;;;;13.58;5.53;;;;;;;17.58;100.00;94643.66;1597852;88;21123;-50
2022/08/24 03:48:56;;;;;;;12.93;6.15;;;;;;;17.59;100.00;94641.63;1609091;88;21170;-51
2022/08/24 03:51:25;;;;;;;13.83;5.60;;;;;;;17.64;100.00;94647.23;1658107;85;20976;-51
2022/08/24 03:53:54;;;;;;;8.05;4.53;;;;;;;17.72;100.00;94653.11;1655867;85;21032;-51
2022/08/24 03:56:24;;;;;;;9.70;4.53;;;;;;;17.77;100.00;94646.81;1653027;85;21515;-51
2022/08/24 03:58:52;;;;;;;13.80;4.85;;;;;;;17.79;100.00;94650.64;1647525;85;21076;-51
2022/08/24 04:01:20;;;;;;;9.93;5.45;;;;;;;17.82;100.00;94641.94;1666549;85;21161;-50
2022/08/24 04:03:48;;;;;;;9.40;6.00;;;;;;;17.83;100.00;94651.16;1662639;85;21018;-51
2022/08/24 04:06:18;;;;;;;11.38;5.58;;;;;;;17.88;100.00;94649.68;1656372;85;21079;-50
2022/08/24 04:08:46;;;;;;;7.97;5.30;;;;;;;17.96;100.00;94648.73;1648822;85;21006;-50
2022/08/24 04:11:18;;;;;;;9.20;5.08;;;;;;;18.03;100.00;94651.68;1666150;83;21057;-50
2022/08/24 04:13:46;;;;;;;12.55;5.65;;;;;;;18.06;100.00;94653.46;1664919;85;21135;-50
2022/08/24 04:16:17;;;;;;;9.90;4.92;;;;;;;18.12;100.00;94653.63;1649038;85;21419;-49
2022/08/24 04:18:46;;;;;;;10.00;5.00;;;;;;;18.11;100.00;94652.11;1609806;88;21010;-53
2022/08/24 04:21:33;;;;;;;10.72;4.67;;;;;;;18.10;100.00;94659.55;1677113;83;21005;-50
2022/08/24 04:24:00;;;;;;;12.70;5.12;;;;;;;18.13;100.00;94657.16;1669184;85;21633;-51
2022/08/24 04:26:30;;;;;;;12.53;5.55;;;;;;;18.15;100.00;94650.50;1673313;85;21877;-50
2022/08/24 04:28:58;;;;;;;14.13;5.40;;;;;;;18.18;100.00;94658.59;1674833;85;21039;-50
2022/08/24 04:31:27;;;;;;;8.30;5.58;;;;;;;18.24;100.00;94663.58;1649650;85;21068;-50
2022/08/24 04:33:55;;;;;;;13.50;5.85;;;;;;;18.32;100.00;94677.19;1658357;83;21066;-51
2022/08/24 04:36:23;;;;;;;10.25;5.25;;;;;;;18.33;100.00;94683.67;1660785;84;22456;-51
2022/08/24 04:47:29;;;;;;;7.85;4.92;;;;;;;18.46;100.00;94689.54;1716595;79;22265;-52
2022/08/24 04:49:57;;;;;;;8.10;5.78;;;;;;;18.43;100.00;94678.00;1711954;83;21442;-51
2022/08/24 04:52:25;;;;;;;12.90;5.37;;;;;;;18.37;100.00;94684.19;1682268;83;21091;-50
2022/08/24 04:54:53;;;;;;;11.90;5.85;;;;;;;18.37;100.00;94680.63;1705081;83;21533;-50
2022/08/24 04:57:23;;;;;;;10.65;5.50;;;;;;;18.41;100.00;94693.06;1706954;83;21080;-51
2022/08/24 04:59:57;;;;;;;11.85;5.60;;;;;;;18.48;100.00;94700.20;1708826;83;21247;-50
2022/08/24 05:02:25;;;;;;;6.53;4.50;;;;;;;18.54;100.00;94700.36;1706559;83;21010;-49
2022/08/24 05:04:56;;;;;;;11.93;4.97;;;;;;;18.61;100.00;94702.66;1705606;83;21466;-52
2022/08/24 05:07:24;;;;;;;7.05;5.12;;;;;;;18.66;100.00;94697.73;1686135;83;21015;-53
2022/08/24 05:09:52;;;;;;;10.40;6.08;;;;;;;18.68;100.00;94704.96;1705473;84;21062;-50
2022/08/24 05:12:20;;;;;;;10.03;5.83;;;;;;;18.73;100.00;94704.25;1706438;84;21134;-48
2022/08/24 05:14:52;;;;;;;13.25;7.65;;;;;;;18.76;100.00;94712.22;1683993;82;21129;-52
2022/08/24 05:17:22;;;;;;;17.48;6.83;;;;;;;18.71;100.00;94704.61;1706415;84;21006;-52
2022/08/24 05:19:49;;;;;;;20.30;7.45;;;;;;;18.72;100.00;94706.91;1684398;84;21006;-51
2022/08/24 05:22:18;;;;;;;14.90;6.62;;;;;;;18.80;100.00;94711.37;1706477;84;21418;-48
2022/08/24 05:24:47;;;;;;;9.75;5.97;;;;;;;18.86;100.00;94716.33;1706706;84;21116;-50
2022/08/24 05:27:17;;;;;;;10.18;6.55;;;;;;;18.92;100.00;94710.91;1666747;84;21466;-49
2022/08/24 05:29:45;;;;;;;9.25;5.28;;;;;;;18.97;100.00;94713.59;1683419;84;21611;-51
2022/08/24 05:32:15;;;;;;;12.90;5.30;;;;;;;19.00;99.97;94714.72;1661095;84;21546;-49
2022/08/24 05:34:43;;;;;;;7.58;5.03;;;;;;;19.02;99.67;94721.95;1683256;83;21319;-51
2022/08/24 05:37:12;;;;;;;11.03;4.95;;;;;;;19.06;99.30;94716.92;1698356;84;21239;-50
2022/08/24 05:39:43;;;;;;;7.10;4.83;;;;;;;19.11;99.06;94723.13;1652085;83;21011;-52
2022/08/24 05:42:11;;;;;;;13.80;6.45;;;;;;;19.16;98.87;94730.00;1706258;82;21046;-51
2022/08/24 05:44:41;;;;;;;6.97;5.62;;;;;;;19.24;99.21;94732.45;1699390;82;21354;-52
2022/08/24 05:47:09;;;;;;;8.58;5.42;;;;;;;19.36;99.18;94743.78;1675543;83;22248;-51
2022/08/24 05:49:37;;;;;;;9.63;5.28;;;;;;;19.41;98.23;94742.37;1685006;83;21306;-50
2022/08/24 05:52:06;;;;;;;10.95;4.62;;;;;;;19.43;98.08;94737.70;1705635;82;21597;-52
2022/08/24 05:54:35;;;;;;;15.10;5.00;;;;;;;19.43;97.44;94747.46;1711788;82;21073;-55
2022/08/24 05:57:05;;;;;;;10.70;4.20;;;;;;;19.42;97.24;94749.50;1689151;83;20987;-51
2022/08/24 05:59:35;;;;;;;9.33;4.25;;;;;;;19.44;97.02;94749.76;1697709;82;21014;-53
2022/08/24 06:02:06;;;;;;;9.23;5.50;;;;;;;19.45;96.91;94752.67;1684997;83;21160;-50
2022/08/24 06:04:36;;;;;;;10.15;4.97;;;;;;;19.48;96.61;94750.27;1706405;82;21659;-51
2022/08/24 06:07:11;;;;;;;8.38;4.45;;;;;;;19.53;96.00;94752.30;1686620;82;21637;-50
2022/08/24 06:09:37;;;;;;;8.68;3.77;;;;;;;19.58;94.90;94744.56;1691069;82;21022;-51
2022/08/24 06:12:07;;;;;;;9.50;4.53;;;;;;;19.63;94.50;94753.60;1679960;82;21612;-51
2022/08/24 06:14:35;;;;;;;8.95;4.67;;;;;;;19.61;93.80;94761.72;1697201;82;21110;-51
2022/08/24 06:17:05;;;;;;;13.00;4.60;;;;;;;19.59;93.75;94749.52;1693401;83;21129;-49
2022/08/24 06:19:33;;;;;;;9.15;4.45;;;;;;;19.55;93.24;94754.60;1727400;82;21521;-53
2022/08/24 06:22:01;;;;;;;14.25;5.08;;;;;;;19.52;92.91;94761.94;1695818;82;21881;-51
2022/08/24 06:27:20;;;;;;;12.70;5.62;;;;;;;19.63;92.49;94755.00;1705630;82;21438;-54
2022/08/24 06:30:03;;;;;;;8.95;5.00;;;;;;;19.72;92.52;94763.11;1724251;81;21049;-52
2022/08/24 06:32:50;;;;;;;10.13;4.20;;;;;;;19.81;92.83;94760.09;1659110;82;21014;-51
2022/08/24 06:35:33;;;;;;;11.70;5.10;;;;;;;19.92;93.50;94768.46;1676721;82;21113;-50
2022/08/24 06:38:00;;;;;;;8.60;5.30;;;;;;;19.95;94.00;94771.63;1687125;82;21133;-53
2022/08/24 06:40:30;;;;;;;10.65;5.12;;;;;;;20.04;94.23;94772.83;1637924;85;21315;-52
2022/08/24 06:43:03;;;;;;;8.05;4.90;;;;;;;20.14;93.71;94768.48;1704866;82;21069;-52
2022/08/24 06:45:52;;;;;;;11.45;4.87;;;;;;;20.22;92.43;94770.27;1682531;82;21065;-55
2022/08/24 06:48:21;;;;;;;9.55;4.72;;;;;;;20.31;91.58;94772.05;1710578;82;21003;-55
2022/08/24 06:50:49;;;;;;;8.20;5.10;;;;;;;20.41;91.15;94774.71;1717977;82;21030;-55
2022/08/24 06:53:16;;;;;;;9.10;5.00;;;;;;;20.48;90.61;94774.19;1699504;82;21237;-58
2022/08/24 06:55:50;;;;;;;9.65;5.00;;;;;;;20.49;89.76;94770.11;1713265;82;21981;-55
2022/08/24 06:58:18;;;;;;;8.80;5.10;;;;;;;20.58;89.28;94772.66;1724245;81;20997;-53
2022/08/24 07:00:46;;;;;;;7.60;3.95;;;;;;;20.69;89.00;94776.19;1711614;82;21065;-51
2022/08/24 07:03:15;;;;;;;8.85;3.55;;;;;;;20.82;88.26;94783.41;1671477;83;21097;-50
2022/08/24 07:05:56;;;;;;;9.20;4.12;;;;;;;20.87;87.07;94781.88;1695976;82;21333;-53
2022/08/24 07:08:30;;;;;;;4.95;3.45;;;;;;;20.90;86.89;94783.02;1689138;82;21136;-52
2022/08/24 07:10:58;;;;;;;7.42;3.80;;;;;;;21.05;87.05;94782.71;1707309;82;21058;-52
2022/08/24 07:13:26;;;;;;;9.60;3.92;;;;;;;21.17;86.18;94784.98;1697140;82;21071;-58
2022/08/24 07:15:55;;;;;;;5.83;3.85;;;;;;;21.25;85.08;94788.01;1704572;82;21168;-53
2022/08/24 07:18:24;;;;;;;8.43;3.75;;;;;;;21.32;84.89;94786.80;1692517;82;21963;-58
2022/08/24 07:20:52;;;;;;;7.10;3.60;;;;;;;21.40;84.77;94781.42;1708475;82;20998;-54
2022/08/24 07:23:29;;;;;;;9.98;4.20;;;;;;;21.48;84.40;94778.22;1702989;81;21565;-52
2022/08/24 07:25:56;;;;;;;7.20;3.90;;;;;;;21.57;84.25;94770.91;1696294;82;21006;-53
2022/08/24 07:28:27;;;;;;;12.93;4.40;;;;;;;21.69;83.24;94772.40;1699351;82;21074;-53
2022/08/24 07:30:55;;;;;;;8.40;3.85;;;;;;;21.76;83.01;94776.03;1655084;82;21449;-53
2022/08/24 07:33:23;;;;;;;10.23;4.20;;;;;;;21.82;82.88;94775.38;1701351;82;21021;-54
2022/08/24 07:35:51;;;;;;;9.70;4.03;;;;;;;21.90;82.16;94772.91;1690415;83;21070;-57
2022/08/24 07:38:19;;;;;;;6.42;3.47;;;;;;;22.00;81.85;94774.09;1693485;82;21629;-54
2022/08/24 07:40:47;;;;;;;6.55;3.50;;;;;;;22.11;80.69;94779.63;1695059;81;21699;-54
2022/08/24 07:43:16;;;;;;;6.03;2.98;;;;;;;22.19;79.55;94782.75;1696484;82;21167;-55
2022/08/24 07:45:44;;;;;;;6.95;3.30;;;;;;;22.21;77.83;94776.60;1671177;83;21069;-56
2022/08/24 07:48:14;;;;;;;7.70;3.77;;;;;;;22.16;77.04;94785.20;1709070;82;21081;-54
2022/08/24 07:50:43;;;;;;;11.48;3.60;;;;;;;22.19;77.45;94778.54;1682414;82;21184;-53
2022/08/24 07:53:12;;;;;;;9.10;3.42;;;;;;;22.25;76.28;94783.45;1694387;82;22175;-55
2022/08/24 07:55:41;;;;;;;6.90;3.08;;;;;;;22.31;75.34;94787.63;1690593;82;21257;-58
2022/08/24 07:58:08;;;;;;;4.83;2.90;;;;;;;22.35;73.18;94788.09;1690152;83;21362;-51
2022/08/24 08:00:36;;;;;;;5.47;2.70;;;;;;;22.38;73.19;94789.24;1681800;82;21041;-52
2022/08/24 08:03:05;;;;;;;5.08;2.70;;;;;;;22.47;73.01;94792.36;1681429;83;21127;-52
2022/08/24 08:05:37;;;;;;;8.63;2.80;;;;;;;22.55;72.33;94792.66;1684546;83;21073;-52
2022/08/24 08:08:05;;;;;;;6.55;2.98;;;;;;;22.61;71.48;94791.96;1683056;83;21787;-50
2022/08/24 08:10:37;;;;;;;12.15;2.90;;;;;;;22.67;70.69;94798.27;1691931;82;21549;-52
2022/08/24 08:13:06;;;;;;;9.48;3.15;;;;;;;22.74;70.68;94796.94;1692978;82;21085;-52
2022/08/24 08:15:36;;;;;;;7.53;2.70;;;;;;;22.85;70.20;94794.78;1700324;84;21552;-50
2022/08/24 08:18:06;;;;;;;4.65;2.77;;;;;;;22.93;69.63;94790.12;1699489;84;21068;-52
2022/08/24 08:20:36;;;;;;;8.15;3.00;;;;;;;22.98;70.36;94786.48;1701436;82;22224;-52
2022/08/24 08:26:16;;;;;;;5.83;2.65;;;;;;;23.01;71.71;94783.28;1717574;82;21054;-53
2022/08/24 08:29:05;;;;;;;7.78;2.42;;;;;;;23.03;71.54;94779.30;1728174;83;21090;-51
2022/08/24 08:31:34;;;;;;;6.17;3.02;;;;;;;23.12;69.97;94785.34;1728234;82;20999;-55
2022/08/24 08:34:03;;;;;;;9.00;3.17;;;;;;;23.12;69.67;94781.77;1669047;84;21155;-50
2022/08/24 08:36:32;;;;;;;5.45;2.42;;;;;;;23.16;69.73;94782.22;1696421;84;21559;-51
2022/08/24 08:39:01;;;;;;;5.25;2.47;;;;;;;23.23;69.93;94781.64;1699222;83;20971;-51
2022/08/24 08:41:42;;;;;;;9.95;3.60;;;;;;;23.27;69.84;94784.28;1703277;84;21059;-51
2022/08/24 08:44:24;;;;;;;8.83;2.95;;;;;;;23.34;69.51;94781.50;1657179;82;21026;-50
2022/08/24 08:47:13;;;;;;;4.90;2.65;;;;;;;23.41;68.17;94785.88;1728890;83;21142;-50
2022/08/24 08:49:59;;;;;;;3.72;2.58;;;;;;;23.46;68.24;94790.68;1722762;82;21096;-52
2022/08/24 08:52:50;;;;;;;4.95;2.58;;;;;;;23.55;68.18;94788.89;1698887;82;21461;-52
2022/08/24 08:55:35;;;;;;;3.83;2.90;;;;;;;23.73;67.34;94790.20;1699756;83;21022;-50
2022/08/24 08:58:16;;;;;;;5.85;3.27;;;;;;;23.83;66.76;94796.97;1721905;82;21042;-51
2022/08/24 09:01:05;;;;;;;8.48;2.85;;;;;;;23.89;65.50;94790.62;1682850;83;21167;-51
2022/08/24 09:03:56;;;;;;;10.88;2.65;;;;;;;23.98;64.35;94790.99;1686707;83;21097;-54
2022/08/24 09:07:00;;;;;;;12.75;7.55;;;;;;;24.09;62.54;94793.02;1693928;83;21066;-52
2022/08/24 09:09:54;;;;;;;6.60;3.00;;;;;;;24.11;62.09;94791.84;1686177;82;21160;-50
2022/08/24 09:12:44;;;;;;;4.60;2.37;;;;;;;24.18;62.01;94793.27;1707120;83;21449;-54
2022/08/24 09:15:36;;;;;;;4.35;2.58;;;;;;;24.22;62.24;94793.72;1703872;82;21797;-50
2022/08/24 09:18:12;;;;;;;4.30;3.00;;;;;;;24.24;62.31;94795.34;1680219;84;22202;-51
2022/08/24 09:21:13;;;;;;;7.90;2.65;;;;;;;24.28;63.00;94787.34;1707379;82;21033;-52
2022/08/24 09:24:26;;;;;;;6.78;3.12;;;;;;;24.31;62.77;94784.87;1739781;82;21180;-51
2022/08/24 09:27:22;;;;;;;7.35;3.10;;;;;;;24.34;62.68;94783.79;1628581;86;21049;-52
2022/08/24 09:30:17;;;;;;;7.55;3.20;;;;;;;24.41;62.80;94786.00;1641551;85;21109;-51
2022/08/24 09:32:59;;;;;;;4.12;2.42;;;;;;;24.45;62.69;94783.62;1739836;81;21070;-52
2022/08/24 09:35:59;;;;;;;7.28;2.90;;;;;;;24.51;62.98;94778.65;1740752;82;21038;-50
2022/08/24 09:39:08;;;;;;;8.68;2.98;;;;;;;24.60;63.31;94782.51;1676676;82;21101;-50
2022/08/24 09:42:02;;;;;;;6.95;3.05;;;;;;;24.75;64.58;94777.12;1649715;84;21046;-51
2022/08/24 09:45:11;;;;;;;5.00;2.92;;;;;;;24.94;63.58;94777.80;1650032;85;21889;-53
2022/08/24 09:47:52;;;;;;;12.63;3.98;;;;;;;25.12;63.64;94776.95;1662530;84;21070;-50
2022/08/24 09:50:40;;;;;;;9.20;3.22;;;;;;;25.35;63.75;94775.23;1644765;85;21026;-51
2022/08/24 09:53:41;;;;;;;8.03;3.02;;;;;;;25.50;63.00;94774.78;1642789;87;21158;-53
2022/08/24 09:56:35;;;;;;;7.78;2.72;;;;;;;25.59;62.32;94772.17;1663772;84;21081;-52
2022/08/24 09:59:49;;;;;;;11.30;3.15;;;;;;;25.66;61.11;94769.45;1668196;84;21209;-51
2022/08/24 10:02:37;;;;;;;9.00;3.37;;;;;;;25.76;60.64;94766.93;1658276;85;21042;-52
2022/08/24 10:05:31;;;;;;;6.03;2.90;;;;;;;25.96;60.13;94767.02;1644403;86;21660;-51
2022/08/24 10:08:42;;;;;;;10.68;3.77;;;;;;;26.07;58.71;94761.88;1677612;84;20990;-50
2022/08/24 10:11:39;;;;;;;16.17;3.17;;;;;;;26.27;58.24;94766.05;1694435;82;21042;-51
2022/08/24 10:14:45;;;;;;;13.68;3.83;;;;;;;26.57;56.60;94748.77;1679281;82;21440;-55
2022/08/24 10:17:18;;;;;;;12.80;3.10;;;;;;;26.94;56.45;94749.72;1679267;82;21096;-50
2022/08/24 10:20:19;;;;;;;16.57;4.20;;;;;;;27.27;56.03;94754.50;1712698;81;21094;-52
2022/08/24 10:23:07;;;;;;;11.00;3.83;;;;;;;27.48;55.22;94750.16;1699559;82;21631;-52
2022/08/24 10:26:21;;;;;;;14.40;3.85;;;;;;;27.62;55.21;94748.73;1699733;84;21126;-52
2022/08/24 10:29:09;;;;;;;22.80;3.80;;;;;;;27.75;53.57;94755.03;1674150;83;21056;-52
2022/08/24 10:32:14;;;;;;;21.75;3.65;;;;;;;27.90;53.84;94745.20;1692854;83;21538;-52
2022/08/24 10:34:50;;;;;;;23.35;4.28;;;;;;;28.08;55.03;94746.31;1708152;82;21106;-51
2022/08/24 10:39:39;;;;;;;15.28;3.55;;;;;;;28.27;53.59;94743.13;1681134;82;21042;-57
2022/08/24 10:40:40;;;;;;;23.25;4.58;;;;;;;28.44;53.45;94751.20;1690731;82;21555;-50
2022/08/24 10:43:35;;;;;;;20.15;3.77;;;;;;;28.83;54.05;94752.74;1687833;82;21289;-51
2022/08/24 10:46:25;;;;;;;16.48;3.42;;;;;;;29.34;50.97;94747.63;1689282;82;21050;-53
2022/08/24 10:49:18;;;;;;;16.07;4.00;;;;;;;29.89;49.25;94747.74;1675706;84;21557;-53
2022/08/24 10:52:28;;;;;;;19.82;4.12;;;;;;;30.41;49.03;94748.16;1692282;82;21070;-53
2022/08/24 10:54:58;;;;;;;20.50;3.52;;;;;;;31.01;47.28;94742.81;1711177;82;21053;-53
2022/08/24 10:57:35;;;;;;;18.30;3.33;;;;;;;31.52;45.73;94745.00;1690256;84;21281;-51
2022/08/24 11:00:15;;;;;;;14.65;3.05;;;;;;;31.74;44.36;94744.79;1690697;83;21045;-51
2022/08/24 11:02:45;;;;;;;11.88;2.72;;;;;;;31.87;44.18;94750.14;1704265;83;21034;-53
2022/08/24 11:05:17;;;;;;;18.65;3.02;;;;;;;32.06;43.84;94746.02;1698453;82;21052;-50
2022/08/24 11:08:00;;;;;;;18.40;3.30;;;;;;;32.28;44.31;94736.44;1696866;83;21528;-50
2022/08/24 11:10:30;;;;;;;21.37;3.30;;;;;;;32.70;44.24;94735.56;1708551;82;21931;-53
2022/08/24 11:13:15;;;;;;;20.85;3.67;;;;;;;33.04;42.01;94736.16;1685785;82;21605;-52
2022/08/24 11:15:52;;;;;;;21.05;3.47;;;;;;;33.13;42.09;94734.00;1648131;82;21060;-52
2022/08/24 11:18:20;;;;;;;28.92;3.83;;;;;;;33.38;41.75;94737.41;1692659;84;21110;-52
2022/08/24 11:20:49;;;;;;;13.22;2.90;;;;;;;33.52;41.42;94734.17;1682533;82;21553;-54
2022/08/24 11:23:29;;;;;;;26.27;4.05;;;;;;;33.74;40.67;94727.33;1702450;82;21181;-50
2022/08/24 11:26:05;;;;;;;19.07;3.20;;;;;;;33.93;40.86;94725.14;1697825;82;21062;-53
2022/08/24 11:28:46;;;;;;;21.05;3.20;;;;;;;34.15;40.15;94738.27;1695486;82;21007;-51
2022/08/24 11:31:34;;;;;;;18.03;4.00;;;;;;;34.34;40.24;94730.38;1668353;84;21007;-53
2022/08/24 11:34:06;;;;;;;23.98;3.62;;;;;;;34.54;39.24;94729.70;1677292;82;21482;-54
2022/08/24 11:36:36;;;;;;;17.05;3.45;;;;;;;34.76;38.68;94729.16;1679294;82;21141;-51
2022/08/24 11:39:15;;;;;;;30.88;4.70;;;;;;;35.06;39.47;94733.45;1698118;84;21533;-51
2022/08/24 11:41:57;;;;;;;28.70;4.33;;;;;;;35.19;37.70;94735.07;1703003;81;21092;-50
2022/08/24 11:44:56;;;;;;;17.80;3.87;;;;;;;34.64;37.73;94734.73;1679841;83;21601;-51
2022/08/24 11:47:58;;;;;;;21.73;3.87;;;;;;;33.94;38.78;94723.86;1681752;82;21428;-52
2022/08/24 11:50:49;;;;;;;;;;;;;;;33.48;39.94;94727.43;1692191;83;21126;-51
2022/08/24 11:53:53;;;;;;;25.57;4.25;;;;;;;33.41;40.32;94729.73;1666212;83;20171;-54
2022/08/24 11:56:29;;;;;;;21.07;4.15;;;;;;;33.46;39.93;94716.60;1691966;82;21164;-58
2022/08/24 11:59:22;;;;;;;20.48;3.70;;;;;;;33.77;39.86;94725.36;1692867;82;21084;-57
2022/08/24 12:02:02;;;;;;;28.15;4.33;;;;;;;34.23;38.76;94724.61;1693260;82;21294;-56
2022/08/24 12:04:58;;;;;;;23.70;3.80;;;;;;;34.41;37.77;94726.59;1702661;82;21030;-53
2022/08/24 12:07:34;;;;;;;27.55;3.83;;;;;;;34.36;37.61;94728.41;1729509;82;21030;-53
2022/08/24 12:10:24;;;;;;;23.90;3.70;;;;;;;34.28;37.43;94731.35;1664338;84;21019;-52
2022/08/24 12:17:04;;;;;;;28.57;4.20;;;;;;;33.93;37.29;94727.99;1682280;83;21149;-50
2022/08/24 12:19:35;;;;;;;41.08;4.33;;;;;;;33.67;38.83;94732.47;1703762;84;21269;-52
2022/08/24 12:22:05;;;;;;;24.25;8.78;;;;;;;34.00;37.78;94728.58;1702383;84;21042;-51
2022/08/24 12:24:56;;;;;;;24.50;3.45;;;;;;;34.06;37.48;94733.33;1738301;82;21522;-51